Time;durP1;ratioP1;P1;durP2;ratioP2;P2;SDS_P1;SDS_P2;PMS_P1;PMS_P2;Temp;Humidity;BMP_temperature;BMP_pressure;BME280_temperature;BME280_humidity;BME280_pressure;Samples;Min_cycle;Max_cycle;Signal;HPM_P1;HPM_P2
2024/02/25 00:00:08;;;;;;;4.00;2.78;;;3.00;99.90;;;;;;5045849;28;20032;-31
2024/02/25 00:02:33;;;;;;;3.42;3.13;;;3.00;99.90;;;;;;5039450;28;20036;-32
2024/02/25 00:04:59;;;;;;;5.00;3.15;;;3.00;99.90;;;;;;5049674;28;20025;-30
2024/02/25 00:07:24;;;;;;;4.65;2.78;;;3.00;99.90;;;;;;5042200;28;20440;-32
2024/02/25 00:09:50;;;;;;;4.22;3.38;;;3.10;99.90;;;;;;5040626;28;20029;-33
2024/02/25 00:12:15;;;;;;;5.03;3.83;;;3.00;99.90;;;;;;5045233;28;20091;-32
2024/02/25 00:14:41;;;;;;;7.97;3.85;;;3.00;99.90;;;;;;5045276;28;20033;-31
2024/02/25 00:17:07;;;;;;;4.50;3.42;;;3.00;99.90;;;;;;5045914;28;20021;-31
2024/02/25 00:19:32;;;;;;;5.88;4.03;;;3.00;99.90;;;;;;5046797;28;20029;-32
2024/02/25 00:21:58;;;;;;;6.97;4.50;;;3.10;99.90;;;;;;5041893;28;20013;-35
2024/02/25 00:24:23;;;;;;;6.43;4.15;;;3.10;99.90;;;;;;5051816;28;20025;-34
2024/02/25 00:26:49;;;;;;;4.95;3.78;;;3.00;99.90;;;;;;5044653;28;20078;-31
2024/02/25 00:29:15;;;;;;;4.70;3.13;;;3.00;99.90;;;;;;5045034;28;20029;-32
2024/02/25 00:31:41;;;;;;;5.45;3.55;;;3.00;99.90;;;;;;5033238;28;20759;-39
2024/02/25 00:34:08;;;;;;;4.18;3.38;;;3.00;99.90;;;;;;5025351;28;20495;-40
2024/02/25 00:36:33;;;;;;;5.07;3.25;;;3.00;99.90;;;;;;5025603;28;20104;-40
2024/02/25 00:39:01;;;;;;;3.60;2.90;;;3.00;99.90;;;;;;5026314;28;20026;-39
2024/02/25 00:41:26;;;;;;;3.60;3.17;;;3.00;99.90;;;;;;5025322;28;20065;-39
2024/02/25 00:43:52;;;;;;;3.72;2.63;;;2.80;99.90;;;;;;5024621;28;20136;-39
2024/02/25 00:46:17;;;;;;;3.10;2.70;;;2.80;99.90;;;;;;5026296;28;20057;-38
2024/02/25 00:48:43;;;;;;;4.20;3.10;;;2.80;99.90;;;;;;5025465;28;20029;-39
2024/02/25 00:51:09;;;;;;;2.83;2.60;;;2.90;99.90;;;;;;5025370;28;20034;-40
2024/02/25 00:53:35;;;;;;;6.30;3.65;;;2.90;99.90;;;;;;5026546;28;20395;-39
2024/02/25 00:56:02;;;;;;;6.75;3.17;;;2.90;99.90;;;;;;5023476;28;20026;-40
2024/02/25 00:58:28;;;;;;;4.75;3.03;;;3.00;99.90;;;;;;5026588;28;20033;-38
2024/02/25 01:00:53;;;;;;;2.92;2.65;;;3.00;99.90;;;;;;5029282;28;20029;-39
2024/02/25 01:03:19;;;;;;;6.68;3.28;;;2.80;99.90;;;;;;5041366;28;20063;-38
2024/02/25 01:05:45;;;;;;;3.83;2.97;;;2.70;99.90;;;;;;5048269;28;20044;-40
2024/02/25 01:08:10;;;;;;;5.47;3.33;;;2.60;99.90;;;;;;5047190;28;20044;-39
2024/02/25 01:10:36;;;;;;;2.80;2.60;;;2.60;99.90;;;;;;5045875;28;20054;-39
2024/02/25 01:13:02;;;;;;;3.65;3.35;;;2.70;99.90;;;;;;5047093;28;20071;-32
2024/02/25 01:15:27;;;;;;;3.50;2.65;;;2.70;99.90;;;;;;5046881;28;20036;-31
2024/02/25 01:17:53;;;;;;;3.33;2.38;;;2.70;99.90;;;;;;5050567;28;20029;-32
2024/02/25 01:20:18;;;;;;;4.38;2.45;;;2.70;99.90;;;;;;5051381;28;20429;-34
2024/02/25 01:22:44;;;;;;;5.72;2.85;;;2.80;99.90;;;;;;5042379;28;20041;-31
2024/02/25 01:25:11;;;;;;;2.75;2.40;;;2.90;99.90;;;;;;5049962;28;20028;-31
2024/02/25 01:27:37;;;;;;;2.58;2.28;;;2.70;99.90;;;;;;5046956;28;20072;-31
2024/02/25 01:30:06;;;;;;;3.20;2.50;;;2.60;99.90;;;;;;5051143;28;20060;-33
2024/02/25 01:32:31;;;;;;;2.70;2.50;;;2.60;99.90;;;;;;5047976;28;20430;-31
2024/02/25 01:34:57;;;;;;;3.15;2.38;;;2.70;99.90;;;;;;5046983;28;20112;-31
2024/02/25 01:37:23;;;;;;;5.80;2.45;;;2.70;99.90;;;;;;5044450;28;20016;-31
2024/02/25 01:39:48;;;;;;;2.60;2.40;;;2.70;99.90;;;;;;5045547;28;20033;-33
2024/02/25 01:42:22;;;;;;;3.88;2.50;;;2.70;99.90;;;;;;5048205;28;20024;-40
2024/02/25 01:44:59;;;;;;;2.63;2.30;;;2.70;99.90;;;;;;5048997;28;20036;-38
2024/02/25 01:47:25;;;;;;;3.08;2.05;;;2.70;99.90;;;;;;5046602;28;20293;-39
2024/02/25 01:49:51;;;;;;;2.80;2.60;;;2.70;99.90;;;;;;5049084;28;20029;-40
2024/02/25 01:52:19;;;;;;;3.30;2.65;;;2.70;99.90;;;;;;5046091;28;20466;-36
2024/02/25 01:54:45;;;;;;;3.08;2.78;;;2.60;99.90;;;;;;5045510;28;20040;-37
2024/02/25 01:57:12;;;;;;;3.63;2.70;;;2.70;99.90;;;;;;5043408;28;20021;-38
2024/02/25 01:59:38;;;;;;;2.58;2.38;;;2.70;99.90;;;;;;5044309;28;20048;-36
2024/02/25 02:02:04;;;;;;;4.40;2.55;;;2.70;99.90;;;;;;5049924;28;20036;-37
2024/02/25 02:04:32;;;;;;;3.35;2.60;;;2.70;99.90;;;;;;5041314;28;20021;-39
2024/02/25 02:06:59;;;;;;;2.67;2.47;;;2.70;99.90;;;;;;5045224;28;20106;-36
2024/02/25 02:09:26;;;;;;;2.40;2.20;;;2.70;99.90;;;;;;5044310;28;20051;-38
2024/02/25 02:11:57;;;;;;;2.03;1.85;;;2.70;99.90;;;;;;5049708;28;20044;-40
2024/02/25 02:14:22;;;;;;;2.45;2.00;;;2.50;99.90;;;;;;5045218;28;20572;-40
2024/02/25 02:16:48;;;;;;;1.27;1.25;;;2.40;99.90;;;;;;5049927;28;20032;-40
2024/02/25 02:19:13;;;;;;;3.42;2.05;;;2.20;99.90;;;;;;5047521;28;20056;-40
2024/02/25 02:21:39;;;;;;;3.92;2.58;;;2.20;99.90;;;;;;5044201;28;20032;-31
2024/02/25 02:24:06;;;;;;;2.70;2.50;;;2.00;99.90;;;;;;5047561;28;20039;-32
2024/02/25 02:26:32;;;;;;;5.68;3.13;;;2.10;99.90;;;;;;5049212;28;20029;-32
2024/02/25 02:28:57;;;;;;;2.50;2.30;;;2.30;99.90;;;;;;5041684;28;20037;-31
2024/02/25 02:31:23;;;;;;;2.30;2.10;;;2.40;99.90;;;;;;5050681;28;20041;-31
2024/02/25 02:33:49;;;;;;;2.65;2.42;;;2.40;99.90;;;;;;5049392;28;20029;-32
2024/02/25 02:36:15;;;;;;;5.13;2.08;;;2.50;99.90;;;;;;5042989;28;20541;-32
2024/02/25 02:38:42;;;;;;;2.20;1.92;;;2.50;99.90;;;;;;5045402;28;20033;-34
2024/02/25 02:41:08;;;;;;;2.05;1.80;;;2.60;99.90;;;;;;5043693;28;20021;-32
2024/02/25 02:43:33;;;;;;;2.63;2.10;;;2.60;99.90;;;;;;5051413;28;20028;-31
2024/02/25 02:45:59;;;;;;;3.17;2.90;;;2.60;99.90;;;;;;5046756;28;20437;-32
2024/02/25 02:48:24;;;;;;;2.88;2.58;;;2.60;99.90;;;;;;5047839;28;20037;-32
2024/02/25 02:50:50;;;;;;;3.33;3.00;;;2.60;99.90;;;;;;5048510;28;20025;-32
2024/02/25 02:53:16;;;;;;;3.33;2.50;;;2.60;99.90;;;;;;5047756;28;20021;-38
2024/02/25 02:55:41;;;;;;;2.72;2.33;;;2.60;99.90;;;;;;5042309;28;20098;-39
2024/02/25 02:58:07;;;;;;;3.17;2.88;;;2.60;99.90;;;;;;5047455;28;20502;-40
2024/02/25 03:00:34;;;;;;;3.00;2.72;;;2.60;99.90;;;;;;5044739;28;20041;-39
2024/02/25 03:03:00;;;;;;;4.10;2.92;;;2.70;99.90;;;;;;5045089;28;20393;-40
2024/02/25 03:05:25;;;;;;;3.38;2.28;;;2.70;99.90;;;;;;5040724;28;20025;-38
2024/02/25 03:07:53;;;;;;;3.17;2.08;;;2.80;99.90;;;;;;5043436;28;20525;-39
2024/02/25 03:10:20;;;;;;;2.20;2.00;;;2.70;99.90;;;;;;5048608;28;20681;-35
2024/02/25 03:12:46;;;;;;;3.30;3.00;;;2.70;99.90;;;;;;5047200;28;20387;-39
2024/02/25 03:15:16;;;;;;;3.60;2.53;;;2.70;99.90;;;;;;5050234;28;20525;-40
2024/02/25 03:17:42;;;;;;;2.50;2.30;;;2.60;99.90;;;;;;5043755;28;20029;-36
2024/02/25 03:20:08;;;;;;;3.67;2.53;;;2.50;99.90;;;;;;5046373;28;20090;-38
2024/02/25 03:22:35;;;;;;;2.45;2.22;;;2.60;99.90;;;;;;5046451;28;22273;-40
2024/02/25 03:25:02;;;;;;;2.40;2.20;;;2.60;99.90;;;;;;5045418;28;20474;-41
2024/02/25 03:27:28;;;;;;;2.55;2.15;;;2.60;99.90;;;;;;5040819;28;20025;-39
2024/02/25 03:29:53;;;;;;;2.65;2.40;;;2.60;99.90;;;;;;5051324;28;20029;-39
2024/02/25 03:32:19;;;;;;;3.65;2.40;;;2.60;99.90;;;;;;5045006;28;20056;-32
2024/02/25 03:34:45;;;;;;;4.20;2.33;;;2.50;99.90;;;;;;5045996;28;20045;-34
2024/02/25 03:37:12;;;;;;;3.05;2.30;;;2.40;99.90;;;;;;5047387;28;20355;-32
2024/02/25 03:39:37;;;;;;;2.28;2.00;;;2.30;99.90;;;;;;5040721;28;20137;-32
2024/02/25 03:42:03;;;;;;;1.20;1.20;;;2.30;99.90;;;;;;5049883;28;20018;-31
2024/02/25 03:44:29;;;;;;;4.20;2.33;;;2.20;99.90;;;;;;5043868;28;20030;-33
2024/02/25 03:46:54;;;;;;;5.53;3.30;;;2.10;99.90;;;;;;5045492;28;20067;-32
2024/02/25 03:49:21;;;;;;;4.43;3.88;;;2.20;99.90;;;;;;5051907;28;20028;-37
2024/02/25 03:51:46;;;;;;;4.32;3.92;;;2.20;99.90;;;;;;5043395;28;20029;-32
2024/02/25 03:54:12;;;;;;;5.22;4.88;;;2.30;99.90;;;;;;5044976;28;20036;-31
2024/02/25 03:56:38;;;;;;;4.88;4.45;;;2.40;99.90;;;;;;5041674;28;20037;-31
2024/02/25 03:59:04;;;;;;;5.18;4.50;;;2.40;99.90;;;;;;5044508;28;20493;-31
2024/02/25 04:01:30;;;;;;;5.43;4.00;;;2.50;99.90;;;;;;5042980;28;20033;-38
2024/02/25 04:03:55;;;;;;;3.30;3.00;;;2.50;99.90;;;;;;5044075;28;20478;-39
2024/02/25 04:06:22;;;;;;;3.30;2.60;;;2.50;99.90;;;;;;5036956;28;20017;-40
2024/02/25 04:08:48;;;;;;;2.25;2.05;;;2.50;99.90;;;;;;5041412;28;20029;-38
2024/02/25 04:11:13;;;;;;;3.35;3.08;;;2.60;99.90;;;;;;5043914;28;20029;-40
2024/02/25 04:13:39;;;;;;;3.17;2.75;;;2.60;99.90;;;;;;5043660;28;20623;-40
2024/02/25 04:16:05;;;;;;;3.38;2.80;;;2.50;99.90;;;;;;5043256;28;20051;-38
2024/02/25 04:18:30;;;;;;;2.88;2.65;;;2.50;99.90;;;;;;5048326;28;20222;-36
2024/02/25 04:20:56;;;;;;;3.15;2.67;;;2.50;99.90;;;;;;5043950;28;20552;-37
2024/02/25 04:23:23;;;;;;;2.97;2.70;;;2.50;99.90;;;;;;5045916;28;20070;-39
2024/02/25 04:25:49;;;;;;;2.20;2.05;;;2.50;99.90;;;;;;5037656;28;20480;-36
2024/02/25 04:28:14;;;;;;;2.58;2.38;;;2.40;99.90;;;;;;5045383;28;20029;-40
2024/02/25 04:30:40;;;;;;;2.40;1.90;;;2.30;99.90;;;;;;5042039;28;20454;-40
2024/02/25 04:33:06;;;;;;;2.53;2.03;;;2.30;99.90;;;;;;5041297;28;20110;-39
2024/02/25 04:35:31;;;;;;;2.65;2.10;;;2.20;99.90;;;;;;5041446;28;20084;-38
2024/02/25 04:37:57;;;;;;;3.78;2.38;;;2.10;99.90;;;;;;5040047;28;20033;-39
2024/02/25 04:40:24;;;;;;;2.88;2.60;;;2.20;99.90;;;;;;5033195;28;20702;-36
2024/02/25 04:42:49;;;;;;;1.92;1.73;;;2.20;99.90;;;;;;5043109;28;20029;-40
2024/02/25 04:45:15;;;;;;;2.67;2.45;;;2.10;99.90;;;;;;5042577;28;20044;-40
2024/02/25 04:47:41;;;;;;;2.50;2.30;;;1.80;99.90;;;;;;5039634;28;20029;-38
2024/02/25 04:50:07;;;;;;;6.47;3.08;;;1.70;99.90;;;;;;5043662;28;20028;-40
2024/02/25 04:52:32;;;;;;;3.42;3.13;;;1.80;99.90;;;;;;5042890;28;20068;-39
2024/02/25 04:54:58;;;;;;;3.80;2.58;;;1.90;99.90;;;;;;5043822;28;20064;-40
2024/02/25 04:57:23;;;;;;;2.13;1.95;;;1.90;99.90;;;;;;5042014;28;20032;-40
2024/02/25 04:59:49;;;;;;;2.30;2.10;;;1.90;99.90;;;;;;5039146;28;20078;-38
2024/02/25 05:02:15;;;;;;;2.78;2.33;;;1.80;99.90;;;;;;5035017;28;20676;-36
2024/02/25 05:04:40;;;;;;;3.67;2.42;;;1.80;99.90;;;;;;5032049;28;20032;-41
2024/02/25 05:07:06;;;;;;;2.95;2.58;;;1.90;99.90;;;;;;5023090;28;20041;-38
2024/02/25 05:09:31;;;;;;;2.03;1.83;;;1.80;99.90;;;;;;5017266;28;20034;-41
2024/02/25 05:11:57;;;;;;;29.60;13.82;;;1.90;99.90;;;;;;5021631;28;20029;-31
2024/02/25 05:14:22;;;;;;;44.08;19.13;;;1.90;99.90;;;;;;5025135;28;20037;-32
2024/02/25 05:16:51;;;;;;;42.38;17.88;;;1.80;99.90;;;;;;5021287;28;20487;-34
2024/02/25 05:19:20;;;;;;;20.98;8.10;;;1.80;99.90;;;;;;5031341;28;20443;-35
2024/02/25 05:21:45;;;;;;;2.50;2.00;;;1.80;99.90;;;;;;5030646;28;20083;-32
2024/02/25 05:24:11;;;;;;;4.47;3.13;;;1.80;99.90;;;;;;5023561;28;20093;-31
2024/02/25 05:26:37;;;;;;;4.68;2.35;;;1.80;99.90;;;;;;5028251;28;20112;-32
2024/02/25 05:29:04;;;;;;;2.90;2.15;;;1.80;99.90;;;;;;5026874;28;20029;-31
2024/02/25 05:31:29;;;;;;;2.10;2.00;;;1.70;99.90;;;;;;5030481;28;20051;-39
2024/02/25 05:33:55;;;;;;;2.45;2.25;;;1.50;99.90;;;;;;5045319;28;20041;-31
2024/02/25 05:36:22;;;;;;;3.35;2.17;;;1.50;99.90;;;;;;5041740;28;20048;-32
2024/02/25 05:38:52;;;;;;;4.00;2.53;;;1.40;99.90;;;;;;5040546;28;20029;-32
2024/02/25 05:41:17;;;;;;;4.32;2.65;;;1.40;99.90;;;;;;5041685;28;20098;-38
2024/02/25 05:43:46;;;;;;;2.60;2.00;;;1.30;99.90;;;;;;5045982;28;20589;-31
2024/02/25 05:46:12;;;;;;;7.00;2.08;;;1.40;99.90;;;;;;5044118;28;20067;-31
2024/02/25 05:48:39;;;;;;;2.05;1.73;;;1.40;99.90;;;;;;5046632;28;20088;-32
2024/02/25 05:51:05;;;;;;;2.30;2.10;;;1.20;99.90;;;;;;5046284;28;20115;-32
2024/02/25 05:53:31;;;;;;;1.90;1.80;;;1.10;99.90;;;;;;5043473;28;20135;-32
2024/02/25 05:55:56;;;;;;;2.10;1.90;;;1.10;99.90;;;;;;5046928;28;20027;-31
2024/02/25 05:58:22;;;;;;;2.35;2.15;;;1.10;99.90;;;;;;5037388;28;20388;-32
2024/02/25 06:00:47;;;;;;;3.17;2.42;;;1.20;99.90;;;;;;5043605;28;20034;-32
2024/02/25 06:03:15;;;;;;;2.63;2.40;;;1.10;99.90;;;;;;5028874;28;20028;-40
2024/02/25 06:05:41;;;;;;;5.07;2.30;;;1.20;99.90;;;;;;5023344;28;20312;-38
2024/02/25 06:08:07;;;;;;;3.72;2.40;;;1.30;99.90;;;;;;5022094;28;20041;-41
2024/02/25 06:10:33;;;;;;;2.25;2.05;;;1.20;99.90;;;;;;5021580;28;20108;-41
2024/02/25 06:12:59;;;;;;;2.03;1.92;;;1.10;99.90;;;;;;5054579;28;20080;-41
2024/02/25 06:15:24;;;;;;;2.50;2.30;;;1.20;99.90;;;;;;5024116;28;20786;-41
2024/02/25 06:17:50;;;;;;;3.33;2.60;;;1.20;99.90;;;;;;5028066;28;20030;-39
2024/02/25 06:20:16;;;;;;;3.42;2.40;;;1.20;99.90;;;;;;5023909;28;20056;-40
2024/02/25 06:22:41;;;;;;;2.80;2.60;;;1.10;99.90;;;;;;5030654;28;20089;-31
2024/02/25 06:25:08;;;;;;;2.65;2.08;;;1.10;99.90;;;;;;5027787;28;20032;-31
2024/02/25 06:27:35;;;;;;;2.47;2.28;;;1.10;99.90;;;;;;5028216;28;20033;-31
2024/02/25 06:30:08;;;;;;;4.88;2.63;;;1.10;99.90;;;;;;5022052;28;20056;-33
2024/02/25 06:32:34;;;;;;;2.08;1.98;;;1.20;99.90;;;;;;5024377;28;20034;-33
2024/02/25 06:35:01;;;;;;;4.28;2.47;;;1.10;99.90;;;;;;5027802;28;20056;-32
2024/02/25 06:37:31;;;;;;;2.22;2.03;;;1.10;99.90;;;;;;5017571;28;20458;-34
2024/02/25 06:39:57;;;;;;;4.60;2.03;;;1.10;99.90;;;;;;5021252;28;20068;-32
2024/02/25 06:42:23;;;;;;;2.30;2.13;;;1.20;99.90;;;;;;5018807;28;20128;-35
2024/02/25 06:44:48;;;;;;;2.83;2.50;;;1.30;99.90;;;;;;5027118;28;20478;-33
2024/02/25 06:47:14;;;;;;;3.13;2.28;;;1.30;99.90;;;;;;5027534;28;20029;-33
2024/02/25 06:49:40;;;;;;;3.58;2.78;;;1.30;99.90;;;;;;5025107;28;20030;-32
2024/02/25 06:52:07;;;;;;;2.65;2.20;;;1.30;99.90;;;;;;5026049;28;20677;-33
2024/02/25 06:54:33;;;;;;;4.72;2.15;;;1.40;99.90;;;;;;5029175;28;20036;-33
2024/02/25 06:56:58;;;;;;;2.25;2.05;;;1.40;99.90;;;;;;5053546;28;20464;-33
2024/02/25 06:59:24;;;;;;;2.10;1.95;;;1.30;99.90;;;;;;5019910;28;20037;-35
2024/02/25 07:01:50;;;;;;;1.83;1.73;;;1.40;99.90;;;;;;5022830;28;20030;-35
2024/02/25 07:04:15;;;;;;;2.50;2.30;;;1.30;99.90;;;;;;5028967;28;20479;-33
2024/02/25 07:06:41;;;;;;;3.88;2.85;;;1.20;99.90;;;;;;5021497;28;20041;-33
2024/02/25 07:09:07;;;;;;;3.33;2.13;;;1.20;99.90;;;;;;5019609;28;20131;-32
2024/02/25 07:11:33;;;;;;;1.83;1.73;;;1.20;99.90;;;;;;5019315;28;20491;-37
2024/02/25 07:13:59;;;;;;;3.20;2.00;;;1.20;99.90;;;;;;5023446;28;20034;-41
2024/02/25 07:16:25;;;;;;;1.77;1.67;;;1.30;99.90;;;;;;5023788;28;20026;-40
2024/02/25 07:18:51;;;;;;;2.38;2.15;;;1.10;99.90;;;;;;5021456;28;20028;-42
2024/02/25 07:21:16;;;;;;;2.15;1.98;;;1.00;99.90;;;;;;5024233;28;20030;-34
2024/02/25 07:23:43;;;;;;;2.25;1.98;;;1.00;99.90;;;;;;5026371;28;20782;-40
2024/02/25 07:26:10;;;;;;;4.25;2.28;;;1.10;99.90;;;;;;5024898;28;20036;-41
2024/02/25 07:28:40;;;;;;;2.08;1.52;;;1.30;99.90;;;;;;5027844;28;20063;-42
2024/02/25 07:31:15;;;;;;;2.72;2.53;;;1.40;99.90;;;;;;5028675;28;20174;-33
2024/02/25 07:33:45;;;;;;;2.60;2.10;;;1.60;99.90;;;;;;5043507;28;20037;-41
2024/02/25 07:36:11;;;;;;;3.15;2.33;;;1.70;99.90;;;;;;5041027;28;20059;-42
2024/02/25 07:38:37;;;;;;;2.65;2.45;;;1.80;99.90;;;;;;5038461;28;20033;-41
2024/02/25 07:41:07;;;;;;;2.70;2.50;;;1.90;99.90;;;;;;5038132;28;20029;-42
2024/02/25 07:43:34;;;;;;;3.92;2.50;;;2.00;99.90;;;;;;5044113;28;20124;-41
2024/02/25 07:45:59;;;;;;;2.78;2.50;;;2.20;99.90;;;;;;5044412;28;20025;-42
2024/02/25 07:48:25;;;;;;;2.55;2.28;;;2.20;99.90;;;;;;5042102;28;20097;-39
2024/02/25 07:50:51;;;;;;;4.22;2.60;;;2.30;99.90;;;;;;5038039;28;20025;-40
2024/02/25 07:53:16;;;;;;;3.22;2.30;;;2.30;99.90;;;;;;5042818;28;20040;-35
2024/02/25 07:55:42;;;;;;;2.50;2.30;;;2.50;99.90;;;;;;5042116;28;20036;-38
2024/02/25 07:58:08;;;;;;;2.50;2.30;;;2.50;99.90;;;;;;5047645;28;20478;-40
2024/02/25 08:00:34;;;;;;;2.20;2.00;;;2.50;99.90;;;;;;5038637;28;20110;-39
2024/02/25 08:03:03;;;;;;;2.63;2.10;;;2.50;99.90;;;;;;5017780;28;20080;-40
2024/02/25 08:05:28;;;;;;;1.90;1.80;;;2.50;99.90;;;;;;5016840;28;20462;-40
2024/02/25 08:07:54;;;;;;;2.70;2.20;;;2.60;99.90;;;;;;5021477;28;20422;-39
2024/02/25 08:10:20;;;;;;;1.92;1.83;;;2.70;99.90;;;;;;5015194;28;20399;-35
2024/02/25 08:12:46;;;;;;;2.50;2.10;;;2.70;99.90;;;;;;5017707;28;20077;-39
2024/02/25 08:15:13;;;;;;;1.92;1.83;;;2.80;99.90;;;;;;5021735;28;20025;-38
2024/02/25 08:17:39;;;;;;;2.75;1.83;;;2.80;99.90;;;;;;5019298;28;20025;-40
2024/02/25 08:20:06;;;;;;;2.78;2.20;;;2.90;99.90;;;;;;5022147;28;20467;-40
2024/02/25 08:22:32;;;;;;;2.20;1.70;;;3.00;99.90;;;;;;5016247;28;20034;-33
2024/02/25 08:24:59;;;;;;;2.00;1.70;;;3.10;99.90;;;;;;5024487;28;20082;-32
2024/02/25 08:27:28;;;;;;;7.85;2.20;;;3.40;99.90;;;;;;5022600;28;20735;-34
2024/02/25 08:29:55;;;;;;;2.58;2.17;;;3.70;99.90;;;;;;5023314;28;20036;-37
2024/02/25 08:32:20;;;;;;;1.30;1.30;;;3.80;99.90;;;;;;5037634;28;20032;-35
2024/02/25 08:34:49;;;;;;;3.08;2.33;;;4.00;99.90;;;;;;5042491;28;20041;-31
2024/02/25 08:37:15;;;;;;;3.35;2.40;;;4.30;99.90;;;;;;5038801;28;20033;-31
2024/02/25 08:39:41;;;;;;;2.15;1.88;;;4.50;99.90;;;;;;5039336;28;20031;-31
2024/02/25 08:42:06;;;;;;;2.03;1.92;;;4.70;99.90;;;;;;5041839;28;20079;-34
2024/02/25 08:44:32;;;;;;;1.95;1.85;;;4.90;99.90;;;;;;5039422;28;20512;-31
2024/02/25 08:46:57;;;;;;;1.65;1.50;;;5.10;99.90;;;;;;5041503;28;20031;-34
2024/02/25 08:49:23;;;;;;;2.13;1.92;;;5.20;99.90;;;;;;5041608;28;20057;-30
2024/02/25 08:51:48;;;;;;;1.60;1.50;;;5.20;99.90;;;;;;5041539;28;20079;-31
2024/02/25 08:54:14;;;;;;;2.45;2.25;;;5.40;99.90;;;;;;5039766;28;20889;-31
2024/02/25 08:56:40;;;;;;;1.85;1.70;;;5.60;99.90;;;;;;5038846;28;20756;-31
2024/02/25 08:59:05;;;;;;;1.52;1.42;;;5.80;99.90;;;;;;5039435;28;20086;-34
2024/02/25 09:01:31;;;;;;;2.17;1.60;;;6.00;99.90;;;;;;5037257;28;20037;-37
2024/02/25 09:03:56;;;;;;;1.00;1.00;;;6.20;99.90;;;;;;5033034;28;20116;-38
2024/02/25 09:06:22;;;;;;;0.90;0.85;;;6.40;99.90;;;;;;5039557;28;20061;-39
2024/02/25 09:08:48;;;;;;;0.70;0.70;;;6.60;99.90;;;;;;5037412;28;20040;-39
2024/02/25 09:11:13;;;;;;;0.60;0.60;;;6.70;99.90;;;;;;5036841;28;20029;-39
2024/02/25 09:13:39;;;;;;;0.85;0.70;;;6.80;99.90;;;;;;5036120;28;20124;-37
2024/02/25 09:16:05;;;;;;;0.55;0.55;;;6.90;99.90;;;;;;5034706;28;20025;-38
2024/02/25 09:18:32;;;;;;;0.50;0.50;;;7.00;98.90;;;;;;5039922;28;20486;-39
2024/02/25 09:20:59;;;;;;;0.70;0.70;;;7.10;99.20;;;;;;5038095;28;21470;-39
2024/02/25 09:23:25;;;;;;;0.68;0.68;;;7.20;98.70;;;;;;5034862;28;20363;-39
2024/02/25 09:25:51;;;;;;;0.75;0.75;;;7.40;99.90;;;;;;5035947;28;20162;-40
2024/02/25 09:28:21;;;;;;;2.17;0.60;;;7.50;98.00;;;;;;5038508;28;20041;-36
2024/02/25 09:30:47;;;;;;;1.02;0.90;;;7.60;97.80;;;;;;5035647;28;20509;-38
2024/02/25 09:33:12;;;;;;;0.70;0.70;;;7.70;99.90;;;;;;5021285;28;20064;-32
2024/02/25 09:35:38;;;;;;;0.50;0.50;;;7.80;96.90;;;;;;5019295;28;20037;-33
2024/02/25 09:38:04;;;;;;;0.60;0.60;;;7.90;93.40;;;;;;5017912;28;20018;-32
2024/02/25 09:40:30;;;;;;;1.20;0.75;;;8.00;92.50;;;;;;5022292;28;20030;-32
2024/02/25 09:42:58;;;;;;;0.60;0.60;;;8.10;94.00;;;;;;5020550;28;20527;-32
2024/02/25 09:45:24;;;;;;;0.80;0.70;;;8.10;91.30;;;;;;5017971;28;20105;-33
2024/02/25 09:47:51;;;;;;;0.70;0.70;;;8.20;90.70;;;;;;5014997;28;20018;-33
2024/02/25 09:50:18;;;;;;;0.50;0.50;;;8.30;91.40;;;;;;5020385;28;20038;-37
2024/02/25 09:52:48;;;;;;;0.50;0.50;;;8.40;81.40;;;;;;5020990;28;20362;-35
2024/02/25 09:55:14;;;;;;;0.55;0.55;;;8.50;85.30;;;;;;5018262;28;20045;-32
2024/02/25 09:57:41;;;;;;;1.13;0.80;;;8.50;85.80;;;;;;5016426;28;20029;-32
2024/02/25 10:00:08;;;;;;;0.60;0.60;;;8.70;84.40;;;;;;5024150;28;20033;-33
2024/02/25 10:02:35;;;;;;;1.42;0.63;;;8.70;85.00;;;;;;5018862;28;20030;-33
2024/02/25 10:05:03;;;;;;;0.50;0.50;;;8.80;84.30;;;;;;5024225;28;20057;-32
2024/02/25 10:07:31;;;;;;;0.60;0.60;;;8.90;76.50;;;;;;5021546;28;20084;-35
2024/02/25 10:09:56;;;;;;;0.40;0.40;;;9.00;78.00;;;;;;5018143;28;20045;-32
2024/02/25 10:12:23;;;;;;;0.43;0.43;;;9.10;82.10;;;;;;5018962;28;20044;-35
2024/02/25 10:14:55;;;;;;;0.85;0.60;;;9.20;77.30;;;;;;5017527;28;20542;-41
2024/02/25 10:17:24;;;;;;;0.70;0.70;;;9.20;75.20;;;;;;5019034;28;20029;-35
2024/02/25 10:19:56;;;;;;;0.70;0.70;;;9.20;76.60;;;;;;5020661;28;20032;-38
2024/02/25 10:22:24;;;;;;;0.88;0.60;;;9.00;78.60;;;;;;5016868;28;20042;-35
2024/02/25 10:24:51;;;;;;;0.88;0.70;;;9.00;77.70;;;;;;5020838;28;20037;-34
2024/02/25 10:27:19;;;;;;;1.15;0.70;;;8.90;75.80;;;;;;5023442;28;20119;-34
2024/02/25 10:29:51;;;;;;;0.68;0.68;;;9.00;74.00;;;;;;5020809;28;20077;-34
2024/02/25 10:32:28;;;;;;;0.65;0.65;;;9.20;82.50;;;;;;5027731;28;20112;-37
2024/02/25 10:34:55;;;;;;;0.80;0.80;;;9.10;80.10;;;;;;5045599;28;20506;-31
2024/02/25 10:37:23;;;;;;;0.70;0.70;;;9.20;84.50;;;;;;5034490;28;20025;-33
2024/02/25 10:39:53;;;;;;;;;;;9.20;84.10;;;;;;5044352;28;20025;-32
2024/02/25 10:42:26;;;;;;;1.15;0.85;;;9.20;83.10;;;;;;5047615;28;20304;-35
2024/02/25 10:44:56;;;;;;;0.95;0.80;;;9.30;83.30;;;;;;5043385;28;20958;-31
2024/02/25 10:47:25;;;;;;;1.58;0.60;;;9.30;83.60;;;;;;5039178;28;20036;-31
2024/02/25 10:49:52;;;;;;;0.73;0.70;;;9.20;71.00;;;;;;5047533;28;20037;-31
2024/02/25 10:52:23;;;;;;;1.30;0.80;;;9.30;70.90;;;;;;5048178;28;20036;-35
2024/02/25 10:54:51;;;;;;;0.90;0.90;;;9.30;70.30;;;;;;5045493;28;20032;-31
2024/02/25 10:57:20;;;;;;;0.88;0.70;;;9.40;75.50;;;;;;5046354;28;20029;-34
2024/02/25 10:59:47;;;;;;;0.55;0.55;;;9.60;81.30;;;;;;5049095;28;20108;-32
2024/02/25 11:02:23;;;;;;;0.80;0.80;;;9.60;83.30;;;;;;5045957;28;20029;-31
2024/02/25 11:04:48;;;;;;;1.27;0.90;;;9.70;81.30;;;;;;5044593;28;20553;-31
2024/02/25 11:07:15;;;;;;;1.85;1.10;;;9.70;86.90;;;;;;5046190;28;20041;-32
2024/02/25 11:09:42;;;;;;;1.63;0.85;;;10.00;88.50;;;;;;5047609;28;20585;-31
2024/02/25 11:12:23;;;;;;;0.68;0.68;;;10.20;80.20;;;;;;5051001;28;20397;-34
2024/02/25 11:15:04;;;;;;;0.52;0.52;;;10.10;73.90;;;;;;5051958;28;20551;-37
2024/02/25 11:17:43;;;;;;;0.50;0.50;;;10.10;72.50;;;;;;5042161;28;20120;-31
2024/02/25 11:20:11;;;;;;;0.80;0.75;;;10.10;69.30;;;;;;5043590;28;20075;-31
2024/02/25 11:22:38;;;;;;;0.70;0.70;;;10.00;66.30;;;;;;5042210;28;20738;-32
2024/02/25 11:25:05;;;;;;;0.77;0.77;;;9.90;69.60;;;;;;5045880;28;20133;-32
2024/02/25 11:27:56;;;;;;;0.50;0.50;;;10.00;73.10;;;;;;5042422;28;20032;-30
2024/02/25 11:30:22;;;;;;;1.17;0.73;;;9.90;71.30;;;;;;5047389;28;20124;-31
2024/02/25 11:32:48;;;;;;;0.52;0.50;;;9.90;72.40;;;;;;5047044;28;20029;-34
2024/02/25 11:35:15;;;;;;;0.80;0.80;;;9.90;69.60;;;;;;5049764;28;20167;-32
2024/02/25 11:37:48;;;;;;;2.00;1.00;;;10.00;79.00;;;;;;5048695;28;20484;-33
2024/02/25 11:40:15;;;;;;;0.82;0.82;;;10.00;74.90;;;;;;5048878;28;20021;-31
2024/02/25 11:42:42;;;;;;;0.80;0.80;;;10.20;82.00;;;;;;5044988;28;20379;-40
2024/02/25 11:45:10;;;;;;;1.00;0.80;;;10.10;76.80;;;;;;5042098;28;20029;-40
2024/02/25 11:47:37;;;;;;;0.88;0.70;;;10.10;77.60;;;;;;5038246;28;20081;-41
2024/02/25 11:50:03;;;;;;;0.60;0.60;;;10.10;76.30;;;;;;5043369;28;20029;-39
2024/02/25 11:52:28;;;;;;;0.65;0.65;;;10.20;76.30;;;;;;5045716;28;20028;-34
2024/02/25 11:54:54;;;;;;;0.60;0.60;;;10.10;67.30;;;;;;5039905;28;20102;-31
2024/02/25 11:57:20;;;;;;;0.40;0.40;;;10.10;67.90;;;;;;5042925;28;20034;-37
2024/02/25 11:59:46;;;;;;;0.75;0.40;;;10.30;68.00;;;;;;5048236;28;20029;-35
2024/02/25 12:02:12;;;;;;;1.17;0.70;;;10.30;64.80;;;;;;5047740;28;20032;-39
2024/02/25 12:04:37;;;;;;;1.67;0.60;;;10.20;67.70;;;;;;5038441;28;20176;-37
2024/02/25 12:07:04;;;;;;;0.50;0.50;;;10.10;68.50;;;;;;5044220;28;20029;-39
2024/02/25 12:09:30;;;;;;;0.40;0.40;;;9.80;69.90;;;;;;5043642;28;20033;-39
2024/02/25 12:11:56;;;;;;;0.43;0.40;;;9.80;69.90;;;;;;5047546;28;20095;-39
2024/02/25 12:14:22;;;;;;;0.50;0.50;;;9.90;69.10;;;;;;5044771;28;20098;-37
2024/02/25 12:16:50;;;;;;;0.40;0.40;;;10.00;69.50;;;;;;5045180;28;20083;-38
2024/02/25 12:19:17;;;;;;;0.77;0.67;;;10.00;66.20;;;;;;5044188;28;20033;-35
2024/02/25 12:21:50;;;;;;;0.40;0.40;;;10.10;70.30;;;;;;5038218;28;20021;-38
2024/02/25 12:24:16;;;;;;;0.60;0.60;;;10.30;66.50;;;;;;5044709;28;20028;-39
2024/02/25 12:26:47;;;;;;;0.70;0.70;;;10.40;66.40;;;;;;5040457;28;20033;-37
2024/02/25 12:29:15;;;;;;;0.50;0.50;;;10.40;65.90;;;;;;5046751;28;20033;-39
2024/02/25 12:31:41;;;;;;;0.60;0.60;;;10.20;66.20;;;;;;5039341;28;20040;-39
2024/02/25 12:34:07;;;;;;;0.85;0.50;;;10.30;66.00;;;;;;5042881;28;20044;-39
2024/02/25 12:36:33;;;;;;;0.43;0.43;;;10.50;63.70;;;;;;5046768;28;20075;-38
2024/02/25 12:38:58;;;;;;;0.50;0.50;;;10.40;63.20;;;;;;5042119;28;20936;-39
2024/02/25 12:41:24;;;;;;;0.60;0.60;;;10.50;70.40;;;;;;5041995;28;20482;-39
2024/02/25 12:43:55;;;;;;;0.40;0.40;;;10.80;70.60;;;;;;5041643;28;20029;-38
2024/02/25 12:46:20;;;;;;;1.20;0.47;;;10.60;64.90;;;;;;5041498;28;20390;-36
2024/02/25 12:48:46;;;;;;;0.52;0.52;;;10.30;67.40;;;;;;5045443;28;20029;-39
2024/02/25 12:51:17;;;;;;;0.90;0.70;;;10.40;72.60;;;;;;5043266;28;20506;-38